sensor_id;sensor_type;location;lat;lon;timestamp;pressure;altitude;pressure_sealevel;temperature
41593;BMP180;28026;48.562;14.440;2022-12-18T00:01:58;94672.00;;;0.60
41593;BMP180;28026;48.562;14.440;2022-12-18T00:04:30;94670.00;;;0.50
41593;BMP180;28026;48.562;14.440;2022-12-18T00:07:01;94679.00;;;0.50
41593;BMP180;28026;48.562;14.440;2022-12-18T00:09:32;94675.00;;;0.50
41593;BMP180;28026;48.562;14.440;2022-12-18T00:12:03;94682.00;;;0.50
41593;BMP180;28026;48.562;14.440;2022-12-18T00:14:34;94688.00;;;0.40
41593;BMP180;28026;48.562;14.440;2022-12-18T00:17:05;94677.00;;;0.30
41593;BMP180;28026;48.562;14.440;2022-12-18T00:19:36;94689.00;;;0.30
41593;BMP180;28026;48.562;14.440;2022-12-18T00:22:07;94680.00;;;0.20
41593;BMP180;28026;48.562;14.440;2022-12-18T00:24:38;94683.00;;;0.20
41593;BMP180;28026;48.562;14.440;2022-12-18T00:27:08;94693.00;;;0.10
41593;BMP180;28026;48.562;14.440;2022-12-18T00:29:39;94694.00;;;0.10
41593;BMP180;28026;48.562;14.440;2022-12-18T00:32:10;94685.00;;;0.00
41593;BMP180;28026;48.562;14.440;2022-12-18T00:34:41;94681.00;;;0.00
41593;BMP180;28026;48.562;14.440;2022-12-18T00:37:12;94698.00;;;-0.10
41593;BMP180;28026;48.562;14.440;2022-12-18T00:39:43;94694.00;;;0.00
41593;BMP180;28026;48.562;14.440;2022-12-18T00:42:13;94711.00;;;0.00
41593;BMP180;28026;48.562;14.440;2022-12-18T00:45:03;94716.00;;;0.00
41593;BMP180;28026;48.562;14.440;2022-12-18T00:47:34;94719.00;;;0.00
41593;BMP180;28026;48.562;14.440;2022-12-18T00:50:06;94716.00;;;0.00
41593;BMP180;28026;48.562;14.440;2022-12-18T00:52:37;94714.00;;;0.00
41593;BMP180;28026;48.562;14.440;2022-12-18T00:55:10;94726.00;;;0.00
41593;BMP180;28026;48.562;14.440;2022-12-18T00:57:41;94720.00;;;-0.20
41593;BMP180;28026;48.562;14.440;2022-12-18T01:00:16;94710.00;;;-0.30
41593;BMP180;28026;48.562;14.440;2022-12-18T01:02:47;94725.00;;;-0.30
41593;BMP180;28026;48.562;14.440;2022-12-18T01:05:18;94735.00;;;-0.40
41593;BMP180;28026;48.562;14.440;2022-12-18T01:07:49;94734.00;;;-0.40
41593;BMP180;28026;48.562;14.440;2022-12-18T01:10:20;94733.00;;;-0.40
41593;BMP180;28026;48.562;14.440;2022-12-18T01:12:51;94742.00;;;-0.40
41593;BMP180;28026;48.562;14.440;2022-12-18T01:15:22;94731.00;;;-0.40
41593;BMP180;28026;48.562;14.440;2022-12-18T01:17:53;94744.00;;;-0.40
41593;BMP180;28026;48.562;14.440;2022-12-18T01:20:24;94742.00;;;-0.40
41593;BMP180;28026;48.562;14.440;2022-12-18T01:22:55;94733.00;;;-0.40
41593;BMP180;28026;48.562;14.440;2022-12-18T01:25:26;94748.00;;;-0.40
41593;BMP180;28026;48.562;14.440;2022-12-18T01:27:57;94753.00;;;-0.40
41593;BMP180;28026;48.562;14.440;2022-12-18T01:30:28;94756.00;;;-0.50
41593;BMP180;28026;48.562;14.440;2022-12-18T01:32:59;94753.00;;;-0.50
41593;BMP180;28026;48.562;14.440;2022-12-18T01:35:29;94752.00;;;-0.50
41593;BMP180;28026;48.562;14.440;2022-12-18T01:38:00;94749.00;;;-0.60
41593;BMP180;28026;48.562;14.440;2022-12-18T01:40:31;94724.00;;;-0.60
41593;BMP180;28026;48.562;14.440;2022-12-18T01:43:02;94749.00;;;-0.60
41593;BMP180;28026;48.562;14.440;2022-12-18T01:45:33;94744.00;;;-0.60
41593;BMP180;28026;48.562;14.440;2022-12-18T01:48:08;94756.00;;;-0.60
41593;BMP180;28026;48.562;14.440;2022-12-18T01:50:42;94761.00;;;-0.60
41593;BMP180;28026;48.562;14.440;2022-12-18T01:53:17;94746.00;;;-0.60
41593;BMP180;28026;48.562;14.440;2022-12-18T01:55:55;94741.00;;;-0.60
41593;BMP180;28026;48.562;14.440;2022-12-18T01:58:41;94751.00;;;-0.60
41593;BMP180;28026;48.562;14.440;2022-12-18T02:01:22;94737.00;;;-0.70
41593;BMP180;28026;48.562;14.440;2022-12-18T02:03:54;94753.00;;;-0.70
41593;BMP180;28026;48.562;14.440;2022-12-18T02:06:34;94745.00;;;-0.70
41593;BMP180;28026;48.562;14.440;2022-12-18T02:09:15;94752.00;;;-0.80
41593;BMP180;28026;48.562;14.440;2022-12-18T02:12:19;94749.00;;;-0.80
41593;BMP180;28026;48.562;14.440;2022-12-18T02:14:59;94749.00;;;-0.90
41593;BMP180;28026;48.562;14.440;2022-12-18T02:17:43;94754.00;;;-0.90
41593;BMP180;28026;48.562;14.440;2022-12-18T02:20:39;94749.00;;;-0.90
41593;BMP180;28026;48.562;14.440;2022-12-18T02:26:26;94754.00;;;-1.00
41593;BMP180;28026;48.562;14.440;2022-12-18T02:29:09;94752.00;;;-1.00
41593;BMP180;28026;48.562;14.440;2022-12-18T02:31:57;94746.00;;;-1.00
41593;BMP180;28026;48.562;14.440;2022-12-18T02:34:33;94759.00;;;-1.00
41593;BMP180;28026;48.562;14.440;2022-12-18T02:37:14;94748.00;;;-1.00
41593;BMP180;28026;48.562;14.440;2022-12-18T02:39:51;94761.00;;;-1.10
41593;BMP180;28026;48.562;14.440;2022-12-18T02:42:27;94762.00;;;-1.10
41593;BMP180;28026;48.562;14.440;2022-12-18T02:44:58;94761.00;;;-1.10
41593;BMP180;28026;48.562;14.440;2022-12-18T02:47:33;94748.00;;;-1.10
41593;BMP180;28026;48.562;14.440;2022-12-18T02:50:26;94764.00;;;-1.10
41593;BMP180;28026;48.562;14.440;2022-12-18T02:53:31;94762.00;;;-1.20
41593;BMP180;28026;48.562;14.440;2022-12-18T02:56:20;94761.00;;;-1.30
41593;BMP180;28026;48.562;14.440;2022-12-18T02:59:09;94767.00;;;-1.40
41593;BMP180;28026;48.562;14.440;2022-12-18T03:01:56;94763.00;;;-1.40
41593;BMP180;28026;48.562;14.440;2022-12-18T03:04:46;94767.00;;;-1.40
41593;BMP180;28026;48.562;14.440;2022-12-18T03:07:35;94760.00;;;-1.50
41593;BMP180;28026;48.562;14.440;2022-12-18T03:10:17;94762.00;;;-1.50
41593;BMP180;28026;48.562;14.440;2022-12-18T03:13:07;94767.00;;;-1.50
41593;BMP180;28026;48.562;14.440;2022-12-18T03:15:47;94744.00;;;-1.50
41593;BMP180;28026;48.562;14.440;2022-12-18T03:18:25;94742.00;;;-1.50
41593;BMP180;28026;48.562;14.440;2022-12-18T03:21:06;94753.00;;;-1.50
41593;BMP180;28026;48.562;14.440;2022-12-18T03:23:45;94747.00;;;-1.50
41593;BMP180;28026;48.562;14.440;2022-12-18T03:26:24;94760.00;;;-1.50
41593;BMP180;28026;48.562;14.440;2022-12-18T03:29:06;94748.00;;;-1.50
41593;BMP180;28026;48.562;14.440;2022-12-18T03:31:51;94748.00;;;-1.60
41593;BMP180;28026;48.562;14.440;2022-12-18T03:34:39;94758.00;;;-1.70
41593;BMP180;28026;48.562;14.440;2022-12-18T03:37:12;94771.00;;;-1.70
41593;BMP180;28026;48.562;14.440;2022-12-18T03:39:43;94766.00;;;-1.70
41593;BMP180;28026;48.562;14.440;2022-12-18T03:46:02;94750.00;;;-1.70
41593;BMP180;28026;48.562;14.440;2022-12-18T03:48:52;94762.00;;;-1.70
41593;BMP180;28026;48.562;14.440;2022-12-18T03:51:45;94766.00;;;-1.70
41593;BMP180;28026;48.562;14.440;2022-12-18T03:54:24;94766.00;;;-1.70
41593;BMP180;28026;48.562;14.440;2022-12-18T03:57:20;94762.00;;;-1.70
41593;BMP180;28026;48.562;14.440;2022-12-18T04:00:00;94766.00;;;-1.70
41593;BMP180;28026;48.562;14.440;2022-12-18T04:02:42;94766.00;;;-1.70
41593;BMP180;28026;48.562;14.440;2022-12-18T04:05:18;94760.00;;;-1.70
41593;BMP180;28026;48.562;14.440;2022-12-18T04:07:53;94750.00;;;-1.80
41593;BMP180;28026;48.562;14.440;2022-12-18T04:10:24;94770.00;;;-1.70
41593;BMP180;28026;48.562;14.440;2022-12-18T04:12:57;94767.00;;;-1.30
41593;BMP180;28026;48.562;14.440;2022-12-18T04:15:28;94770.00;;;-1.20
41593;BMP180;28026;48.562;14.440;2022-12-18T04:17:59;94766.00;;;-1.30
41593;BMP180;28026;48.562;14.440;2022-12-18T04:20:30;94764.00;;;-1.30
41593;BMP180;28026;48.562;14.440;2022-12-18T04:23:01;94778.00;;;-1.30
41593;BMP180;28026;48.562;14.440;2022-12-18T04:25:32;94774.00;;;-1.40
41593;BMP180;28026;48.562;14.440;2022-12-18T04:28:03;94790.00;;;-1.40
41593;BMP180;28026;48.562;14.440;2022-12-18T04:30:34;94790.00;;;-1.50
41593;BMP180;28026;48.562;14.440;2022-12-18T04:33:10;94798.00;;;-1.50
41593;BMP180;28026;48.562;14.440;2022-12-18T04:35:42;94804.00;;;-1.60
41593;BMP180;28026;48.562;14.440;2022-12-18T04:38:13;94795.00;;;-1.60
41593;BMP180;28026;48.562;14.440;2022-12-18T04:40:44;94783.00;;;-1.60
41593;BMP180;28026;48.562;14.440;2022-12-18T04:43:15;94790.00;;;-1.70
41593;BMP180;28026;48.562;14.440;2022-12-18T04:45:46;94797.00;;;-1.70
41593;BMP180;28026;48.562;14.440;2022-12-18T04:48:17;94804.00;;;-1.80
41593;BMP180;28026;48.562;14.440;2022-12-18T04:50:47;94798.00;;;-1.80
41593;BMP180;28026;48.562;14.440;2022-12-18T04:53:18;94793.00;;;-1.90
41593;BMP180;28026;48.562;14.440;2022-12-18T04:55:49;94790.00;;;-1.90
41593;BMP180;28026;48.562;14.440;2022-12-18T04:58:20;94793.00;;;-1.90
41593;BMP180;28026;48.562;14.440;2022-12-18T05:00:51;94802.00;;;-1.90
41593;BMP180;28026;48.562;14.440;2022-12-18T05:03:21;94795.00;;;-1.90
41593;BMP180;28026;48.562;14.440;2022-12-18T05:05:53;94804.00;;;-1.90
41593;BMP180;28026;48.562;14.440;2022-12-18T05:08:24;94793.00;;;-2.00
41593;BMP180;28026;48.562;14.440;2022-12-18T05:11:12;94804.00;;;-2.10
41593;BMP180;28026;48.562;14.440;2022-12-18T05:13:46;94796.00;;;-2.20
41593;BMP180;28026;48.562;14.440;2022-12-18T05:16:17;94798.00;;;-2.20
41593;BMP180;28026;48.562;14.440;2022-12-18T05:18:47;94806.00;;;-2.20
41593;BMP180;28026;48.562;14.440;2022-12-18T05:21:18;94805.00;;;-2.20
41593;BMP180;28026;48.562;14.440;2022-12-18T05:23:49;94818.00;;;-2.20
41593;BMP180;28026;48.562;14.440;2022-12-18T05:26:20;94821.00;;;-2.20
41593;BMP180;28026;48.562;14.440;2022-12-18T05:28:51;94826.00;;;-2.20
41593;BMP180;28026;48.562;14.440;2022-12-18T05:31:22;94826.00;;;-2.30
41593;BMP180;28026;48.562;14.440;2022-12-18T05:33:53;94824.00;;;-2.30
41593;BMP180;28026;48.562;14.440;2022-12-18T05:36:24;94822.00;;;-2.30
41593;BMP180;28026;48.562;14.440;2022-12-18T05:38:55;94827.00;;;-2.40
41593;BMP180;28026;48.562;14.440;2022-12-18T05:41:27;94818.00;;;-2.40
41593;BMP180;28026;48.562;14.440;2022-12-18T05:43:58;94824.00;;;-2.40
41593;BMP180;28026;48.562;14.440;2022-12-18T05:46:29;94825.00;;;-2.50
41593;BMP180;28026;48.562;14.440;2022-12-18T05:49:00;94822.00;;;-2.60
41593;BMP180;28026;48.562;14.440;2022-12-18T05:51:31;94815.00;;;-2.60
41593;BMP180;28026;48.562;14.440;2022-12-18T05:54:02;94827.00;;;-2.70
41593;BMP180;28026;48.562;14.440;2022-12-18T05:56:33;94840.00;;;-2.70
41593;BMP180;28026;48.562;14.440;2022-12-18T05:59:04;94836.00;;;-2.90
41593;BMP180;28026;48.562;14.440;2022-12-18T06:01:35;94839.00;;;-2.90
41593;BMP180;28026;48.562;14.440;2022-12-18T06:04:06;94839.00;;;-2.90
41593;BMP180;28026;48.562;14.440;2022-12-18T06:06:36;94841.00;;;-2.80
41593;BMP180;28026;48.562;14.440;2022-12-18T06:09:08;94849.00;;;-2.80
41593;BMP180;28026;48.562;14.440;2022-12-18T06:11:39;94856.00;;;-2.80
41593;BMP180;28026;48.562;14.440;2022-12-18T06:14:10;94842.00;;;-2.80
41593;BMP180;28026;48.562;14.440;2022-12-18T06:16:41;94853.00;;;-2.80
41593;BMP180;28026;48.562;14.440;2022-12-18T06:19:16;94852.00;;;-2.80
41593;BMP180;28026;48.562;14.440;2022-12-18T06:21:47;94858.00;;;-2.80
41593;BMP180;28026;48.562;14.440;2022-12-18T06:24:19;94868.00;;;-2.80
41593;BMP180;28026;48.562;14.440;2022-12-18T06:26:50;94854.00;;;-2.80
41593;BMP180;28026;48.562;14.440;2022-12-18T06:29:21;94851.00;;;-2.80
41593;BMP180;28026;48.562;14.440;2022-12-18T06:31:52;94857.00;;;-2.80
41593;BMP180;28026;48.562;14.440;2022-12-18T06:34:23;94844.00;;;-2.80
41593;BMP180;28026;48.562;14.440;2022-12-18T06:36:54;94848.00;;;-2.80
41593;BMP180;28026;48.562;14.440;2022-12-18T06:39:27;94847.00;;;-2.80
41593;BMP180;28026;48.562;14.440;2022-12-18T06:41:58;94851.00;;;-2.80
41593;BMP180;28026;48.562;14.440;2022-12-18T06:44:28;94856.00;;;-2.80
41593;BMP180;28026;48.562;14.440;2022-12-18T06:46:59;94859.00;;;-2.80
41593;BMP180;28026;48.562;14.440;2022-12-18T06:49:30;94871.00;;;-2.80
41593;BMP180;28026;48.562;14.440;2022-12-18T06:52:01;94874.00;;;-2.80
41593;BMP180;28026;48.562;14.440;2022-12-18T06:54:32;94863.00;;;-2.80
41593;BMP180;28026;48.562;14.440;2022-12-18T06:57:03;94885.00;;;-2.80
41593;BMP180;28026;48.562;14.440;2022-12-18T06:59:34;94888.00;;;-2.80
41593;BMP180;28026;48.562;14.440;2022-12-18T07:02:05;94873.00;;;-2.80
41593;BMP180;28026;48.562;14.440;2022-12-18T07:04:36;94892.00;;;-2.80
41593;BMP180;28026;48.562;14.440;2022-12-18T07:07:07;94905.00;;;-2.80
41593;BMP180;28026;48.562;14.440;2022-12-18T07:09:38;94894.00;;;-2.80
41593;BMP180;28026;48.562;14.440;2022-12-18T07:12:09;94902.00;;;-2.70
41593;BMP180;28026;48.562;14.440;2022-12-18T07:14:40;94906.00;;;-2.70
41593;BMP180;28026;48.562;14.440;2022-12-18T07:17:11;94906.00;;;-2.60
41593;BMP180;28026;48.562;14.440;2022-12-18T07:19:41;94899.00;;;-2.50
41593;BMP180;28026;48.562;14.440;2022-12-18T07:22:12;94893.00;;;-2.40
41593;BMP180;28026;48.562;14.440;2022-12-18T07:24:43;94897.00;;;-2.30
41593;BMP180;28026;48.562;14.440;2022-12-18T07:27:14;94894.00;;;-2.20
41593;BMP180;28026;48.562;14.440;2022-12-18T07:29:45;94901.00;;;-2.10
41593;BMP180;28026;48.562;14.440;2022-12-18T07:32:16;94910.00;;;-2.10
41593;BMP180;28026;48.562;14.440;2022-12-18T07:34:47;94912.00;;;-2.00
41593;BMP180;28026;48.562;14.440;2022-12-18T07:37:18;94909.00;;;-1.80
41593;BMP180;28026;48.562;14.440;2022-12-18T07:39:48;94897.00;;;-1.60
41593;BMP180;28026;48.562;14.440;2022-12-18T07:42:19;94903.00;;;-1.50
41593;BMP180;28026;48.562;14.440;2022-12-18T07:45:03;94900.00;;;-1.30
41593;BMP180;28026;48.562;14.440;2022-12-18T07:47:35;94907.00;;;-1.10
41593;BMP180;28026;48.562;14.440;2022-12-18T07:50:07;94911.00;;;-0.80
41593;BMP180;28026;48.562;14.440;2022-12-18T07:52:38;94921.00;;;-0.70
41593;BMP180;28026;48.562;14.440;2022-12-18T07:55:09;94914.00;;;-0.50
41593;BMP180;28026;48.562;14.440;2022-12-18T07:57:40;94920.00;;;-0.30
41593;BMP180;28026;48.562;14.440;2022-12-18T08:00:11;94918.00;;;0.00
41593;BMP180;28026;48.562;14.440;2022-12-18T08:02:43;94924.00;;;0.20
41593;BMP180;28026;48.562;14.440;2022-12-18T08:05:14;94921.00;;;0.40
41593;BMP180;28026;48.562;14.440;2022-12-18T08:07:45;94929.00;;;0.60
41593;BMP180;28026;48.562;14.440;2022-12-18T08:10:16;94913.00;;;0.80
41593;BMP180;28026;48.562;14.440;2022-12-18T08:12:51;94924.00;;;1.00
41593;BMP180;28026;48.562;14.440;2022-12-18T08:15:22;94929.00;;;1.20
41593;BMP180;28026;48.562;14.440;2022-12-18T08:17:56;94922.00;;;1.40
41593;BMP180;28026;48.562;14.440;2022-12-18T08:20:27;94913.00;;;1.60
41593;BMP180;28026;48.562;14.440;2022-12-18T08:22:58;94937.00;;;1.70
41593;BMP180;28026;48.562;14.440;2022-12-18T08:25:29;94930.00;;;1.60
41593;BMP180;28026;48.562;14.440;2022-12-18T08:28:00;94942.00;;;1.60
41593;BMP180;28026;48.562;14.440;2022-12-18T08:30:31;94940.00;;;1.70
41593;BMP180;28026;48.562;14.440;2022-12-18T08:33:02;94946.00;;;1.80
41593;BMP180;28026;48.562;14.440;2022-12-18T08:35:36;94945.00;;;2.00
41593;BMP180;28026;48.562;14.440;2022-12-18T08:38:07;94932.00;;;2.20
41593;BMP180;28026;48.562;14.440;2022-12-18T08:40:38;94948.00;;;2.40
41593;BMP180;28026;48.562;14.440;2022-12-18T08:43:10;94937.00;;;2.50
41593;BMP180;28026;48.562;14.440;2022-12-18T08:46:00;94942.00;;;2.70
41593;BMP180;28026;48.562;14.440;2022-12-18T08:48:31;94942.00;;;2.80
41593;BMP180;28026;48.562;14.440;2022-12-18T08:51:02;94945.00;;;2.80
41593;BMP180;28026;48.562;14.440;2022-12-18T08:53:33;94952.00;;;2.90
41593;BMP180;28026;48.562;14.440;2022-12-18T08:56:05;94946.00;;;3.00
41593;BMP180;28026;48.562;14.440;2022-12-18T08:58:36;94939.00;;;3.10
41593;BMP180;28026;48.562;14.440;2022-12-18T09:01:10;94942.00;;;3.20
41593;BMP180;28026;48.562;14.440;2022-12-18T09:03:42;94945.00;;;3.40
41593;BMP180;28026;48.562;14.440;2022-12-18T09:06:16;94947.00;;;3.70
41593;BMP180;28026;48.562;14.440;2022-12-18T09:08:48;94951.00;;;3.90
41593;BMP180;28026;48.562;14.440;2022-12-18T09:11:26;94949.00;;;4.20
41593;BMP180;28026;48.562;14.440;2022-12-18T09:14:00;94950.00;;;4.40
41593;BMP180;28026;48.562;14.440;2022-12-18T09:16:32;94955.00;;;4.70
41593;BMP180;28026;48.562;14.440;2022-12-18T09:19:05;94958.00;;;4.90
41593;BMP180;28026;48.562;14.440;2022-12-18T09:21:39;94958.00;;;5.10
41593;BMP180;28026;48.562;14.440;2022-12-18T09:24:13;94956.00;;;5.30
41593;BMP180;28026;48.562;14.440;2022-12-18T09:26:45;94948.00;;;5.50
41593;BMP180;28026;48.562;14.440;2022-12-18T09:29:16;94941.00;;;5.70
41593;BMP180;28026;48.562;14.440;2022-12-18T09:31:47;94947.00;;;5.80
41593;BMP180;28026;48.562;14.440;2022-12-18T09:34:19;94956.00;;;5.90
41593;BMP180;28026;48.562;14.440;2022-12-18T09:36:52;94958.00;;;5.90
41593;BMP180;28026;48.562;14.440;2022-12-18T09:39:23;94954.00;;;6.00
41593;BMP180;28026;48.562;14.440;2022-12-18T09:41:57;94954.00;;;6.20
41593;BMP180;28026;48.562;14.440;2022-12-18T09:44:46;94955.00;;;6.40
41593;BMP180;28026;48.562;14.440;2022-12-18T09:47:30;94953.00;;;6.60
41593;BMP180;28026;48.562;14.440;2022-12-18T09:50:32;94947.00;;;6.70
41593;BMP180;28026;48.562;14.440;2022-12-18T09:53:17;94950.00;;;6.80
41593;BMP180;28026;48.562;14.440;2022-12-18T09:55:54;94946.00;;;7.00
41593;BMP180;28026;48.562;14.440;2022-12-18T09:58:32;94955.00;;;7.20
41593;BMP180;28026;48.562;14.440;2022-12-18T10:01:13;94953.00;;;7.40
41593;BMP180;28026;48.562;14.440;2022-12-18T10:03:50;94948.00;;;7.50
41593;BMP180;28026;48.562;14.440;2022-12-18T10:06:54;94946.00;;;7.70
41593;BMP180;28026;48.562;14.440;2022-12-18T10:09:54;94938.00;;;7.80
41593;BMP180;28026;48.562;14.440;2022-12-18T10:16:25;94936.00;;;8.00
41593;BMP180;28026;48.562;14.440;2022-12-18T10:25:58;94932.00;;;8.20
41593;BMP180;28026;48.562;14.440;2022-12-18T10:28:40;94930.00;;;8.40
41593;BMP180;28026;48.562;14.440;2022-12-18T10:31:21;94931.00;;;8.60
41593;BMP180;28026;48.562;14.440;2022-12-18T10:33:54;94927.00;;;8.70
41593;BMP180;28026;48.562;14.440;2022-12-18T10:36:25;94924.00;;;8.70
41593;BMP180;28026;48.562;14.440;2022-12-18T10:39:18;94926.00;;;8.90
41593;BMP180;28026;48.562;14.440;2022-12-18T10:41:51;94933.00;;;9.10
41593;BMP180;28026;48.562;14.440;2022-12-18T10:44:26;94911.00;;;9.30
41593;BMP180;28026;48.562;14.440;2022-12-18T10:47:06;94923.00;;;9.40
41593;BMP180;28026;48.562;14.440;2022-12-18T10:49:53;94913.00;;;9.60
41593;BMP180;28026;48.562;14.440;2022-12-18T10:52:27;94912.00;;;9.80
41593;BMP180;28026;48.562;14.440;2022-12-18T10:55:02;94900.00;;;9.80
41593;BMP180;28026;48.562;14.440;2022-12-18T10:57:40;94905.00;;;9.90
41593;BMP180;28026;48.562;14.440;2022-12-18T11:00:29;94910.00;;;10.00
41593;BMP180;28026;48.562;14.440;2022-12-18T11:03:01;94916.00;;;10.10
41593;BMP180;28026;48.562;14.440;2022-12-18T11:05:33;94909.00;;;10.00
41593;BMP180;28026;48.562;14.440;2022-12-18T11:08:21;94908.00;;;9.80
41593;BMP180;28026;48.562;14.440;2022-12-18T11:10:54;94901.00;;;9.80
41593;BMP180;28026;48.562;14.440;2022-12-18T11:13:29;94905.00;;;9.80
41593;BMP180;28026;48.562;14.440;2022-12-18T11:16:03;94901.00;;;10.00
41593;BMP180;28026;48.562;14.440;2022-12-18T11:18:35;94903.00;;;10.10
41593;BMP180;28026;48.562;14.440;2022-12-18T11:21:08;94907.00;;;10.30
41593;BMP180;28026;48.562;14.440;2022-12-18T11:23:53;94893.00;;;10.30
41593;BMP180;28026;48.562;14.440;2022-12-18T11:26:34;94884.00;;;10.30
41593;BMP180;28026;48.562;14.440;2022-12-18T11:29:17;94886.00;;;10.40
41593;BMP180;28026;48.562;14.440;2022-12-18T11:32:33;94893.00;;;10.60
41593;BMP180;28026;48.562;14.440;2022-12-18T11:38:27;94892.00;;;10.80
41593;BMP180;28026;48.562;14.440;2022-12-18T11:41:27;94879.00;;;10.90
41593;BMP180;28026;48.562;14.440;2022-12-18T11:44:29;94884.00;;;11.00
41593;BMP180;28026;48.562;14.440;2022-12-18T11:47:37;94878.00;;;11.20
41593;BMP180;28026;48.562;14.440;2022-12-18T11:50:19;94879.00;;;11.10
41593;BMP180;28026;48.562;14.440;2022-12-18T11:52:54;94878.00;;;11.10
41593;BMP180;28026;48.562;14.440;2022-12-18T12:01:56;94887.00;;;11.30
41593;BMP180;28026;48.562;14.440;2022-12-18T12:11:04;94876.00;;;11.60
41593;BMP180;28026;48.562;14.440;2022-12-18T12:16:29;94877.00;;;11.80
41593;BMP180;28026;48.562;14.440;2022-12-18T12:35:39;94865.00;;;11.90
41593;BMP180;28026;48.562;14.440;2022-12-18T12:38:31;94860.00;;;11.80
41593;BMP180;28026;48.562;14.440;2022-12-18T12:41:14;94859.00;;;11.70
41593;BMP180;28026;48.562;14.440;2022-12-18T12:44:38;94859.00;;;11.60
41593;BMP180;28026;48.562;14.440;2022-12-18T12:47:41;94873.00;;;11.60
41593;BMP180;28026;48.562;14.440;2022-12-18T12:50:19;94864.00;;;11.50
41593;BMP180;28026;48.562;14.440;2022-12-18T12:52:55;94881.00;;;11.50
41593;BMP180;28026;48.562;14.440;2022-12-18T12:55:29;94886.00;;;11.60
41593;BMP180;28026;48.562;14.440;2022-12-18T12:58:46;94889.00;;;11.60
41593;BMP180;28026;48.562;14.440;2022-12-18T13:01:47;94886.00;;;11.60
41593;BMP180;28026;48.562;14.440;2022-12-18T13:04:32;94900.00;;;11.40
41593;BMP180;28026;48.562;14.440;2022-12-18T13:07:28;94897.00;;;11.00
41593;BMP180;28026;48.562;14.440;2022-12-18T13:18:24;94905.00;;;11.10
41593;BMP180;28026;48.562;14.440;2022-12-18T13:23:38;94914.00;;;11.00
41593;BMP180;28026;48.562;14.440;2022-12-18T13:26:27;94922.00;;;10.90
41593;BMP180;28026;48.562;14.440;2022-12-18T13:29:00;94917.00;;;10.80
41593;BMP180;28026;48.562;14.440;2022-12-18T13:34:23;94900.00;;;10.30
41593;BMP180;28026;48.562;14.440;2022-12-18T13:40:06;94929.00;;;10.20
41593;BMP180;28026;48.562;14.440;2022-12-18T13:43:22;94928.00;;;10.20
41593;BMP180;28026;48.562;14.440;2022-12-18T13:49:00;94910.00;;;10.40
41593;BMP180;28026;48.562;14.440;2022-12-18T13:51:35;94910.00;;;10.40
41593;BMP180;28026;48.562;14.440;2022-12-18T13:54:30;94906.00;;;10.40
41593;BMP180;28026;48.562;14.440;2022-12-18T13:57:37;94913.00;;;10.30
41593;BMP180;28026;48.562;14.440;2022-12-18T14:00:29;94920.00;;;10.20
41593;BMP180;28026;48.562;14.440;2022-12-18T14:03:01;94910.00;;;10.10
41593;BMP180;28026;48.562;14.440;2022-12-18T14:05:36;94907.00;;;10.10
41593;BMP180;28026;48.562;14.440;2022-12-18T14:08:15;94899.00;;;10.10
41593;BMP180;28026;48.562;14.440;2022-12-18T14:10:49;94886.00;;;9.90
41593;BMP180;28026;48.562;14.440;2022-12-18T14:13:33;94894.00;;;9.80
41593;BMP180;28026;48.562;14.440;2022-12-18T14:16:14;94886.00;;;9.70
41593;BMP180;28026;48.562;14.440;2022-12-18T14:18:57;94899.00;;;9.40
41593;BMP180;28026;48.562;14.440;2022-12-18T14:21:33;94895.00;;;9.20
41593;BMP180;28026;48.562;14.440;2022-12-18T14:24:19;94904.00;;;8.90
41593;BMP180;28026;48.562;14.440;2022-12-18T14:26:51;94895.00;;;8.60
41593;BMP180;28026;48.562;14.440;2022-12-18T14:29:27;94899.00;;;8.40
41593;BMP180;28026;48.562;14.440;2022-12-18T14:32:13;94900.00;;;8.10
41593;BMP180;28026;48.562;14.440;2022-12-18T14:34:51;94908.00;;;7.80
41593;BMP180;28026;48.562;14.440;2022-12-18T14:37:27;94905.00;;;7.50
41593;BMP180;28026;48.562;14.440;2022-12-18T14:40:11;94909.00;;;7.30
41593;BMP180;28026;48.562;14.440;2022-12-18T14:42:45;94921.00;;;7.10
41593;BMP180;28026;48.562;14.440;2022-12-18T14:45:42;94914.00;;;6.80
41593;BMP180;28026;48.562;14.440;2022-12-18T14:48:25;94922.00;;;6.60
41593;BMP180;28026;48.562;14.440;2022-12-18T14:51:27;94923.00;;;6.40
41593;BMP180;28026;48.562;14.440;2022-12-18T14:54:05;94925.00;;;6.20
41593;BMP180;28026;48.562;14.440;2022-12-18T14:57:11;94931.00;;;6.10
41593;BMP180;28026;48.562;14.440;2022-12-18T15:00:15;94928.00;;;5.90
41593;BMP180;28026;48.562;14.440;2022-12-18T15:02:54;94920.00;;;5.80
41593;BMP180;28026;48.562;14.440;2022-12-18T15:05:30;94919.00;;;5.70
41593;BMP180;28026;48.562;14.440;2022-12-18T15:08:02;94927.00;;;5.60
41593;BMP180;28026;48.562;14.440;2022-12-18T15:10:34;94930.00;;;5.50
41593;BMP180;28026;48.562;14.440;2022-12-18T15:13:06;94925.00;;;5.50
41593;BMP180;28026;48.562;14.440;2022-12-18T15:18:15;94933.00;;;5.20
41593;BMP180;28026;48.562;14.440;2022-12-18T15:20:52;94928.00;;;5.00
41593;BMP180;28026;48.562;14.440;2022-12-18T15:23:38;94935.00;;;4.90
41593;BMP180;28026;48.562;14.440;2022-12-18T15:26:21;94928.00;;;4.80
41593;BMP180;28026;48.562;14.440;2022-12-18T15:28:55;94925.00;;;4.70
41593;BMP180;28026;48.562;14.440;2022-12-18T15:31:34;94937.00;;;4.60
41593;BMP180;28026;48.562;14.440;2022-12-18T15:34:15;94926.00;;;4.50
41593;BMP180;28026;48.562;14.440;2022-12-18T15:36:51;94931.00;;;4.40
41593;BMP180;28026;48.562;14.440;2022-12-18T15:39:22;94926.00;;;4.30
41593;BMP180;28026;48.562;14.440;2022-12-18T15:41:53;94935.00;;;4.20
41593;BMP180;28026;48.562;14.440;2022-12-18T15:44:44;94928.00;;;4.10
41593;BMP180;28026;48.562;14.440;2022-12-18T15:47:15;94928.00;;;3.90
41593;BMP180;28026;48.562;14.440;2022-12-18T15:49:46;94912.00;;;3.70
41593;BMP180;28026;48.562;14.440;2022-12-18T15:52:17;94926.00;;;3.70
41593;BMP180;28026;48.562;14.440;2022-12-18T15:54:56;94913.00;;;3.70
41593;BMP180;28026;48.562;14.440;2022-12-18T15:57:45;94919.00;;;3.60
41593;BMP180;28026;48.562;14.440;2022-12-18T16:00:17;94919.00;;;3.60
41593;BMP180;28026;48.562;14.440;2022-12-18T16:02:48;94912.00;;;3.60
41593;BMP180;28026;48.562;14.440;2022-12-18T16:05:21;94908.00;;;3.60
41593;BMP180;28026;48.562;14.440;2022-12-18T16:07:53;94910.00;;;3.60
41593;BMP180;28026;48.562;14.440;2022-12-18T16:10:26;94918.00;;;3.60
41593;BMP180;28026;48.562;14.440;2022-12-18T16:12:57;94911.00;;;3.50